Time;durP1;ratioP1;P1;durP2;ratioP2;P2;SDS_P1;SDS_P2;PMS_P1;PMS_P2;Temp;Humidity;BMP_temperature;BMP_pressure;BME280_temperature;BME280_humidity;BME280_pressure;Samples;Min_cycle;Max_cycle;Signal;HPM_P1;HPM_P2
2023/05/23 00:01:17;;;;;;;;;;;16.80;77.10;;;;;;5094166;28;19916;-31
2023/05/23 00:03:43;;;;;;;;;;;16.80;77.00;;;;;;5093678;28;19963;-31
2023/05/23 00:06:09;;;;;;;;;;;16.70;77.10;;;;;;5093769;28;19912;-31
2023/05/23 00:08:34;;;;;;;;;;;16.80;77.00;;;;;;5093859;28;20283;-32
2023/05/23 00:11:00;;;;;;;;;;;16.80;76.90;;;;;;5093661;28;19912;-36
2023/05/23 00:13:25;;;;;;;;;;;16.80;77.10;;;;;;5093676;28;19915;-33
2023/05/23 00:15:51;;;;;;;;;;;16.90;76.90;;;;;;5093446;28;19942;-36
2023/05/23 00:18:17;;;;;;;;;;;16.80;77.20;;;;;;5093403;28;19915;-36
2023/05/23 00:20:42;;;;;;;;;;;16.80;77.10;;;;;;5093268;28;20360;-33
2023/05/23 00:23:08;;;;;;;;;;;16.80;77.10;;;;;;5093306;28;19912;-33
2023/05/23 00:25:35;;;;;;;;;;;16.80;77.20;;;;;;5093839;28;20389;-33
2023/05/23 00:28:00;;;;;;;;;;;16.80;77.20;;;;;;5093397;28;19965;-32
2023/05/23 00:30:26;;;;;;;;;;;16.80;77.10;;;;;;5093115;28;19908;-35
2023/05/23 00:32:53;;;;;;;;;;;16.70;77.40;;;;;;5093173;28;20418;-29
2023/05/23 00:35:19;;;;;;;;;;;16.70;77.20;;;;;;5093299;28;19947;-29
2023/05/23 00:37:44;;;;;;;;;;;16.70;77.40;;;;;;5093642;28;19939;-31
2023/05/23 00:40:10;;;;;;;;;;;16.70;77.50;;;;;;5093346;28;19912;-32
2023/05/23 00:42:36;;;;;;;;;;;16.70;77.80;;;;;;5093076;28;19908;-35
2023/05/23 00:45:01;;;;;;;;;;;16.60;78.10;;;;;;5093069;28;20003;-32
2023/05/23 00:47:27;;;;;;;;;;;16.60;78.10;;;;;;5092903;28;20382;-35
2023/05/23 00:49:52;;;;;;;;;;;16.50;78.20;;;;;;5092885;28;20303;-31
2023/05/23 00:52:18;;;;;;;;;;;16.50;78.30;;;;;;5092624;28;19914;-30
2023/05/23 00:54:44;;;;;;;;;;;16.50;78.70;;;;;;5092701;28;19908;-33
2023/05/23 00:57:10;;;;;;;;;;;16.50;78.80;;;;;;5092813;28;19912;-36
2023/05/23 00:59:36;;;;;;;;;;;16.40;79.10;;;;;;5092740;28;19995;-33
2023/05/23 01:02:02;;;;;;;;;;;16.30;79.20;;;;;;5092614;28;20428;-31
2023/05/23 01:04:28;;;;;;;;;;;16.30;79.20;;;;;;5092595;28;19916;-33
2023/05/23 01:06:54;;;;;;;;;;;16.30;79.50;;;;;;5092465;28;19908;-30
2023/05/23 01:09:20;;;;;;;;;;;16.20;79.60;;;;;;5092560;28;19915;-32
2023/05/23 01:11:57;;;;;;;;;;;16.20;79.70;;;;;;5092447;28;19908;-37
2023/05/23 01:14:31;;;;;;;;;;;16.20;79.90;;;;;;5092497;28;19908;-35
2023/05/23 01:17:00;;;;;;;;;;;16.20;80.10;;;;;;5092442;28;19908;-34
2023/05/23 01:19:44;;;;;;;;;;;16.10;80.00;;;;;;5092221;28;20429;-31
2023/05/23 01:22:28;;;;;;;;;;;16.10;80.70;;;;;;5092270;28;19928;-33
2023/05/23 01:24:56;;;;;;;;;;;16.10;80.60;;;;;;5092235;28;19916;-32
2023/05/23 01:27:49;;;;;;;;;;;16.00;80.70;;;;;;5092565;28;20352;-31
2023/05/23 01:30:17;;;;;;;;;;;16.00;80.80;;;;;;5087953;28;19957;-34
2023/05/23 01:32:44;;;;;;;;;;;16.00;80.70;;;;;;5092204;28;19908;-31
2023/05/23 01:35:09;;;;;;;;;;;15.90;81.60;;;;;;5092261;28;20003;-32
2023/05/23 01:37:35;;;;;;;;;;;15.90;81.40;;;;;;5092132;28;19948;-32
2023/05/23 01:40:01;;;;;;;;;;;15.80;81.60;;;;;;5092097;28;19915;-31
2023/05/23 01:42:27;;;;;;;;;;;15.80;81.50;;;;;;5092041;28;19987;-31
2023/05/23 01:44:52;;;;;;;;;;;15.80;81.40;;;;;;5091877;28;19912;-30
2023/05/23 01:47:19;;;;;;;;;;;15.90;81.30;;;;;;5091999;28;19957;-34
2023/05/23 01:49:46;;;;;;;;;;;15.90;81.20;;;;;;5092052;28;19942;-32
2023/05/23 01:52:12;;;;;;;;;;;15.90;81.10;;;;;;5073279;28;20351;-31
2023/05/23 01:54:41;;;;;;;;;;;16.00;81.00;;;;;;5092237;28;19915;-30
2023/05/23 01:57:06;;;;;;;;;;;16.00;80.80;;;;;;5091856;28;19908;-30
2023/05/23 01:59:32;;;;;;;;;;;16.00;80.80;;;;;;5091903;28;19912;-32
2023/05/23 02:01:58;;;;;;;;;;;16.10;80.70;;;;;;5091850;28;19912;-39
2023/05/23 02:04:23;;;;;;;;;;;16.10;80.60;;;;;;5094112;28;20340;-35
2023/05/23 02:06:49;;;;;;;;;;;16.10;80.60;;;;;;5096089;28;19908;-33
2023/05/23 02:09:15;;;;;;;;;;;16.10;80.60;;;;;;5096034;28;19908;-33
2023/05/23 02:11:40;;;;;;;;;;;16.10;80.60;;;;;;5096189;28;19912;-34
2023/05/23 02:14:06;;;;;;;;;;;16.10;80.50;;;;;;5095950;28;19908;-30
2023/05/23 02:16:32;;;;;;;;;;;16.10;80.50;;;;;;5095973;28;19908;-33
2023/05/23 02:18:58;;;;;;;;;;;16.10;80.50;;;;;;5095848;28;19973;-35
2023/05/23 02:21:23;;;;;;;;;;;16.10;80.40;;;;;;5095646;28;19931;-36
2023/05/23 02:23:49;;;;;;;;;;;16.10;80.40;;;;;;5095916;28;20279;-35
2023/05/23 02:26:15;;;;;;;;;;;16.10;80.40;;;;;;5095804;28;19907;-34
2023/05/23 02:28:40;;;;;;;;;;;16.10;80.50;;;;;;5095720;28;19951;-33
2023/05/23 02:31:06;;;;;;;;;;;16.00;80.50;;;;;;5077459;28;20430;-34
2023/05/23 02:33:31;;;;;;;;;;;16.00;80.60;;;;;;5095512;28;19958;-30
2023/05/23 02:35:57;;;;;;;;;;;16.00;80.90;;;;;;5095612;28;19908;-35
2023/05/23 02:38:22;;;;;;;;;;;15.90;80.90;;;;;;5095498;28;19966;-34
2023/05/23 02:40:49;;;;;;;;;;;15.90;81.10;;;;;;5095499;28;19958;-31
2023/05/23 02:43:14;;;;;;;;;;;15.90;81.20;;;;;;5095430;28;19916;-37
2023/05/23 02:45:40;;;;;;;;;;;15.80;81.10;;;;;;5095380;28;20191;-35
2023/05/23 02:48:05;;;;;;;;;;;15.90;81.20;;;;;;5095312;28;19908;-32
2023/05/23 02:50:31;;;;;;;;;;;15.90;81.20;;;;;;5095237;28;20402;-32
2023/05/23 02:52:56;;;;;;;;;;;15.80;81.60;;;;;;5095184;28;19908;-34
2023/05/23 02:55:22;;;;;;;;;;;15.80;81.40;;;;;;5095188;28;19915;-33
2023/05/23 02:57:47;;;;;;;;;;;15.80;81.50;;;;;;5095753;28;19937;-33
2023/05/23 03:00:14;;;;;;;;;;;15.80;81.60;;;;;;5095093;28;19908;-32
2023/05/23 03:02:40;;;;;;;;;;;15.80;81.70;;;;;;5076656;28;19947;-31
2023/05/23 03:05:05;;;;;;;;;;;15.80;82.00;;;;;;5094805;28;19963;-33
2023/05/23 03:07:32;;;;;;;;;;;15.70;81.50;;;;;;5095006;28;19908;-31
2023/05/23 03:09:58;;;;;;;;;;;15.70;81.70;;;;;;5095138;28;20334;-31
2023/05/23 03:12:24;;;;;;;;;;;15.70;81.60;;;;;;5094789;28;19915;-35
2023/05/23 03:14:49;;;;;;;;;;;15.70;82.10;;;;;;5094741;28;19912;-36
2023/05/23 03:17:15;;;;;;;;;;;15.70;81.70;;;;;;5094774;28;19908;-33
2023/05/23 03:19:40;;;;;;;;;;;15.60;81.70;;;;;;5094710;28;20187;-33
2023/05/23 03:22:06;;;;;;;;;;;15.60;81.70;;;;;;5094433;28;20463;-32
2023/05/23 03:24:31;;;;;;;;;;;15.50;81.70;;;;;;5094728;28;19973;-30
2023/05/23 03:26:57;;;;;;;;;;;15.60;81.80;;;;;;5094499;28;19947;-35
2023/05/23 03:29:22;;;;;;;;;;;15.60;81.90;;;;;;5094611;28;20253;-36
2023/05/23 03:31:48;;;;;;;;;;;15.50;81.80;;;;;;5094427;28;19961;-30
2023/05/23 03:34:13;;;;;;;;;;;15.50;82.40;;;;;;5094517;28;19908;-34
2023/05/23 03:36:39;;;;;;;;;;;15.50;82.10;;;;;;5094340;28;19908;-29
2023/05/23 03:39:05;;;;;;;;;;;15.50;81.90;;;;;;5094172;28;19915;-33
2023/05/23 03:41:30;;;;;;;;;;;15.50;81.90;;;;;;5094304;28;20065;-31
2023/05/23 03:43:55;;;;;;;;;;;15.50;81.90;;;;;;5075664;28;20363;-30
2023/05/23 03:46:21;;;;;;;;;;;15.50;82.00;;;;;;5094455;28;19916;-32
2023/05/23 03:48:47;;;;;;;;;;;15.40;82.00;;;;;;5094186;28;19908;-30
2023/05/23 03:51:12;;;;;;;;;;;15.40;82.20;;;;;;5093969;28;19908;-31
2023/05/23 03:53:38;;;;;;;;;;;15.40;82.40;;;;;;5094129;28;20384;-29
2023/05/23 03:56:04;;;;;;;;;;;15.30;82.40;;;;;;5093933;28;19948;-31
2023/05/23 03:58:29;;;;;;;;;;;15.30;82.20;;;;;;5093930;28;19954;-29
2023/05/23 04:00:55;;;;;;;;;;;15.30;82.10;;;;;;5093886;28;20368;-33
2023/05/23 04:03:20;;;;;;;;;;;15.30;82.00;;;;;;5093847;28;19912;-32
2023/05/23 04:05:45;;;;;;;;;;;15.30;82.00;;;;;;5093716;28;19962;-31
2023/05/23 04:08:11;;;;;;;;;;;15.30;81.90;;;;;;5093800;28;20288;-32
2023/05/23 04:10:37;;;;;;;;;;;15.40;82.00;;;;;;5093858;28;19944;-32
2023/05/23 04:13:03;;;;;;;;;;;15.40;82.00;;;;;;5093793;28;19908;-31
2023/05/23 04:15:28;;;;;;;;;;;15.40;81.70;;;;;;5094211;28;19934;-31
2023/05/23 04:17:55;;;;;;;;;;;15.40;81.60;;;;;;5093700;28;19919;-30
2023/05/23 04:20:20;;;;;;;;;;;15.50;81.60;;;;;;5075229;28;19960;-30
2023/05/23 04:22:46;;;;;;;;;;;15.50;81.40;;;;;;5075141;28;20022;-36
2023/05/23 04:25:12;;;;;;;;;;;15.50;81.60;;;;;;5093501;28;19934;-32
2023/05/23 04:27:40;;;;;;;;;;;15.50;81.30;;;;;;5092903;28;19908;-31
2023/05/23 04:30:08;;;;;;;;;;;15.50;81.40;;;;;;5093388;28;19957;-30
2023/05/23 04:32:34;;;;;;;;;;;15.50;81.30;;;;;;5093288;28;20012;-30
2023/05/23 04:35:01;;;;;;;;;;;15.40;81.20;;;;;;5075213;28;19994;-30
2023/05/23 04:37:26;;;;;;;;;;;15.40;81.20;;;;;;5093290;28;19912;-29
2023/05/23 04:39:52;;;;;;;;;;;15.30;81.10;;;;;;5093301;28;19962;-33
2023/05/23 04:42:23;;;;;;;;;;;15.30;81.30;;;;;;5074870;28;19973;-31
2023/05/23 04:44:49;;;;;;;;;;;15.30;81.10;;;;;;5093016;28;19981;-30
2023/05/23 04:47:14;;;;;;;;;;;15.30;81.10;;;;;;5093065;28;19909;-30
2023/05/23 04:49:41;;;;;;;;;;;15.30;81.00;;;;;;5093031;28;19962;-33
2023/05/23 04:52:06;;;;;;;;;;;15.30;81.50;;;;;;5092878;28;20316;-30
2023/05/23 04:54:32;;;;;;;;;;;15.30;81.00;;;;;;5092837;28;19961;-32
2023/05/23 04:56:57;;;;;;;;;;;15.30;80.90;;;;;;5092876;28;19909;-33
2023/05/23 04:59:23;;;;;;;;;;;15.30;80.90;;;;;;5092883;28;19916;-30
2023/05/23 05:01:48;;;;;;;;;;;15.20;80.80;;;;;;5092804;28;20004;-32
2023/05/23 05:04:14;;;;;;;;;;;15.30;80.90;;;;;;5092658;28;20367;-30
2023/05/23 05:06:40;;;;;;;;;;;15.30;80.70;;;;;;5074338;28;20002;-31
2023/05/23 05:09:05;;;;;;;;;;;15.30;80.70;;;;;;5092363;28;19997;-30
2023/05/23 05:11:31;;;;;;;;;;;15.40;80.60;;;;;;5092862;28;19908;-29
2023/05/23 05:13:56;;;;;;;;;;;15.40;80.60;;;;;;5092505;28;19908;-33
2023/05/23 05:16:22;;;;;;;;;;;15.40;80.50;;;;;;5074364;28;19908;-30
2023/05/23 05:18:47;;;;;;;;;;;15.30;80.50;;;;;;5092474;28;19951;-36
2023/05/23 05:21:13;;;;;;;;;;;15.30;80.50;;;;;;5092360;28;20372;-32
2023/05/23 05:23:38;;;;;;;;;;;15.20;80.90;;;;;;5092422;28;19908;-29
2023/05/23 05:26:04;;;;;;;;;;;15.20;81.30;;;;;;5092487;28;19915;-33
2023/05/23 05:28:29;;;;;;;;;;;15.00;81.20;;;;;;5092227;28;20384;-32
2023/05/23 05:30:55;;;;;;;;;;;14.90;81.10;;;;;;5092117;28;20380;-30
2023/05/23 05:33:24;;;;;;;;;;;14.90;81.30;;;;;;5092319;28;19958;-33
2023/05/23 05:35:52;;;;;;;;;;;14.90;81.50;;;;;;5092278;28;19908;-33
2023/05/23 05:38:18;;;;;;;;;;;14.80;81.90;;;;;;5091504;28;20391;-32
2023/05/23 05:40:44;;;;;;;;;;;14.70;81.80;;;;;;5092279;28;19912;-32
2023/05/23 05:43:09;;;;;;;;;;;14.70;81.90;;;;;;5092011;28;19999;-32
2023/05/23 05:45:35;;;;;;;;;;;14.70;82.00;;;;;;5091836;28;19950;-29
2023/05/23 05:48:00;;;;;;;;;;;14.70;82.20;;;;;;5091838;28;19916;-35
2023/05/23 05:50:26;;;;;;;;;;;14.60;81.90;;;;;;5091862;28;20388;-30
2023/05/23 05:52:52;;;;;;;;;;;14.60;82.00;;;;;;5073805;28;19931;-31
2023/05/23 05:55:17;;;;;;;;;;;14.60;82.10;;;;;;5091820;28;20419;-29
2023/05/23 05:57:42;;;;;;;;;;;14.60;81.90;;;;;;5073818;28;20003;-33
2023/05/23 06:00:12;;;;;;;;;;;14.50;81.90;;;;;;5073671;28;19974;-29
2023/05/23 06:02:38;;;;;;;;;;;14.50;82.00;;;;;;5091801;28;19998;-29
2023/05/23 06:05:06;;;;;;;;;;;14.50;81.90;;;;;;5091648;28;19919;-37
2023/05/23 06:07:35;;;;;;;;;;;14.50;81.90;;;;;;5092069;28;19912;-31
2023/05/23 06:10:01;;;;;;;;;;;14.40;81.70;;;;;;5091782;28;19961;-29
2023/05/23 06:12:26;;;;;;;;;;;14.50;81.90;;;;;;5091876;28;19916;-30
2023/05/23 06:14:52;;;;;;;;;;;14.40;81.60;;;;;;5091959;28;20378;-30
2023/05/23 06:17:17;;;;;;;;;;;14.40;81.50;;;;;;5073512;28;19908;-34
2023/05/23 06:19:43;;;;;;;;;;;14.40;81.50;;;;;;5091820;28;19994;-34
2023/05/23 06:22:08;;;;;;;;;;;14.40;81.50;;;;;;5091589;28;19920;-34
2023/05/23 06:24:34;;;;;;;;;;;14.40;81.40;;;;;;5091877;28;19919;-31
2023/05/23 06:26:59;;;;;;;;;;;14.40;81.40;;;;;;5091829;28;20390;-29
2023/05/23 06:29:25;;;;;;;;;;;14.30;81.20;;;;;;5091576;28;19908;-34
2023/05/23 06:31:50;;;;;;;;;;;14.30;81.10;;;;;;5092036;28;19978;-42
2023/05/23 06:34:16;;;;;;;;;;;14.30;81.00;;;;;;5091623;28;19908;-31
2023/05/23 06:36:41;;;;;;;;;;;14.30;81.00;;;;;;5091539;28;19915;-33
2023/05/23 06:39:08;;;;;;;;;;;14.30;80.90;;;;;;5091464;28;19961;-32
2023/05/23 06:41:34;;;;;;;;;;;14.20;80.20;;;;;;5091443;28;19908;-29
2023/05/23 06:44:00;;;;;;;;;;;14.20;80.30;;;;;;5091378;28;19969;-33
2023/05/23 06:46:25;;;;;;;;;;;14.20;80.30;;;;;;5091542;28;19908;-31
2023/05/23 06:48:51;;;;;;;;;;;14.20;80.10;;;;;;5091450;28;19908;-32
2023/05/23 06:51:16;;;;;;;;;;;14.30;80.10;;;;;;5094954;28;19909;-36
2023/05/23 06:53:42;;;;;;;;;;;14.30;79.70;;;;;;5095330;28;20061;-31
2023/05/23 06:56:07;;;;;;;;;;;14.40;79.00;;;;;;5095618;28;19909;-34
2023/05/23 06:58:33;;;;;;;;;;;14.30;79.00;;;;;;5095216;28;19908;-34
2023/05/23 07:00:58;;;;;;;;;;;14.40;78.70;;;;;;5095061;28;19955;-31
2023/05/23 07:03:24;;;;;;;;;;;14.40;77.90;;;;;;5095309;28;20003;-29
2023/05/23 07:05:50;;;;;;;;;;;14.50;78.10;;;;;;5094973;28;20102;-30
2023/05/23 07:08:15;;;;;;;;;;;14.60;77.10;;;;;;5095055;28;20004;-33
2023/05/23 07:10:41;;;;;;;;;;;14.60;77.00;;;;;;5076659;28;20347;-33
2023/05/23 07:13:06;;;;;;;;;;;14.70;75.70;;;;;;5094880;28;19908;-31
2023/05/23 07:15:32;;;;;;;;;;;14.80;75.60;;;;;;5094907;28;19931;-36
2023/05/23 07:17:57;;;;;;;;;;;14.90;73.20;;;;;;5076565;28;19934;-35
2023/05/23 07:20:23;;;;;;;;;;;14.90;73.30;;;;;;5076648;28;19912;-31
2023/05/23 07:22:50;;;;;;;;;;;15.10;71.40;;;;;;5094561;28;19926;-35
2023/05/23 07:25:16;;;;;;;;;;;15.10;71.70;;;;;;5094663;28;19916;-34
2023/05/23 07:27:41;;;;;;;;;;;15.20;69.80;;;;;;5094700;28;19912;-30
2023/05/23 07:30:08;;;;;;;;;;;15.20;70.90;;;;;;5094547;28;20419;-31
2023/05/23 07:32:34;;;;;;;;;;;15.20;69.60;;;;;;5076445;28;20333;-33
2023/05/23 07:35:00;;;;;;;;;;;15.30;68.30;;;;;;5094452;28;19916;-30
2023/05/23 07:37:26;;;;;;;;;;;15.20;69.90;;;;;;5094574;28;20398;-32
2023/05/23 07:39:52;;;;;;;;;;;15.30;70.20;;;;;;5094435;28;20398;-34
2023/05/23 07:42:17;;;;;;;;;;;15.30;69.90;;;;;;5094284;28;19962;-37
2023/05/23 07:44:43;;;;;;;;;;;15.40;68.70;;;;;;5094345;28;20012;-33
2023/05/23 07:47:08;;;;;;;;;;;15.30;68.10;;;;;;5094178;28;19912;-34
2023/05/23 07:49:34;;;;;;;;;;;15.20;68.30;;;;;;5094312;28;19915;-36
2023/05/23 07:52:00;;;;;;;;;;;15.30;67.80;;;;;;5094123;28;19918;-34
2023/05/23 07:54:25;;;;;;;;;;;15.40;68.60;;;;;;5094058;28;19908;-33
2023/05/23 07:56:52;;;;;;;;;;;15.60;68.70;;;;;;5094151;28;19909;-31
2023/05/23 07:59:17;;;;;;;;;;;15.70;68.00;;;;;;5094118;28;19908;-35
2023/05/23 08:01:43;;;;;;;;;;;15.80;67.70;;;;;;5093079;28;19946;-30
2023/05/23 08:04:09;;;;;;;;;;;15.80;67.70;;;;;;5075600;28;20391;-35
2023/05/23 08:06:36;;;;;;;;;;;15.80;68.10;;;;;;5094237;28;19908;-30
2023/05/23 08:09:02;;;;;;;;;;;15.80;68.10;;;;;;5093831;28;20003;-30
2023/05/23 08:11:29;;;;;;;;;;;15.70;68.50;;;;;;5093811;28;19951;-29
2023/05/23 08:13:54;;;;;;;;;;;15.70;68.30;;;;;;5093768;28;19908;-33
2023/05/23 08:16:20;;;;;;;;;;;15.70;68.70;;;;;;5093728;28;19919;-37
2023/05/23 08:18:45;;;;;;;;;;;15.60;69.00;;;;;;5093715;28;19908;-29
2023/05/23 08:21:11;;;;;;;;;;;15.50;69.10;;;;;;5093569;28;19908;-30
2023/05/23 08:23:36;;;;;;;;;;;15.50;68.70;;;;;;5093596;28;19912;-31
2023/05/23 08:26:02;;;;;;;;;;;15.50;68.40;;;;;;5093605;28;19912;-30
2023/05/23 08:28:27;;;;;;;;;;;15.40;68.50;;;;;;5093648;28;19908;-28
2023/05/23 08:30:53;;;;;;;;;;;15.40;68.80;;;;;;5093317;28;19989;-29
2023/05/23 08:33:18;;;;;;;;;;;15.40;68.80;;;;;;5093773;28;19908;-32
2023/05/23 08:35:44;;;;;;;;;;;15.60;68.40;;;;;;5093543;28;20328;-34
2023/05/23 08:38:09;;;;;;;;;;;15.80;68.30;;;;;;5075146;28;19956;-31
2023/05/23 08:40:35;;;;;;;;;;;15.80;67.40;;;;;;5093320;28;19908;-29
2023/05/23 08:43:01;;;;;;;;;;;15.90;66.20;;;;;;5093313;28;19909;-33
2023/05/23 08:45:29;;;;;;;;;;;16.00;67.10;;;;;;5093108;28;19935;-35
2023/05/23 08:47:55;;;;;;;;;;;16.10;65.70;;;;;;5074838;28;20315;-34
2023/05/23 08:50:20;;;;;;;;;;;16.10;66.00;;;;;;5093308;28;19958;-34
2023/05/23 08:52:52;;;;;;;;;;;16.10;66.00;;;;;;5092944;28;19908;-31
2023/05/23 08:55:18;;;;;;;;;;;16.10;66.10;;;;;;5092927;28;19908;-36
2023/05/23 08:57:44;;;;;;;;;;;16.10;66.30;;;;;;5092895;28;19986;-30
2023/05/23 09:00:13;;;;;;;;;;;16.00;65.90;;;;;;5092866;28;19960;-33
2023/05/23 09:02:42;;;;;;;;;;;16.10;65.70;;;;;;5092732;28;19908;-30
2023/05/23 09:05:08;;;;;;;;;;;16.10;66.10;;;;;;5092764;28;19912;-35
2023/05/23 09:07:34;;;;;;;;;;;16.20;64.50;;;;;;5092869;28;20387;-35
2023/05/23 09:10:00;;;;;;;;;;;16.20;65.50;;;;;;5092589;28;19908;-33
2023/05/23 09:12:25;;;;;;;;;;;16.30;64.30;;;;;;5092501;28;19921;-29
2023/05/23 09:14:51;;;;;;;;;;;16.40;62.90;;;;;;5074322;28;19908;-31
2023/05/23 09:17:17;;;;;;;;;;;16.30;61.80;;;;;;5092569;28;20357;-32
2023/05/23 09:19:45;;;;;;;;;;;16.30;61.90;;;;;;5092429;28;19958;-31
2023/05/23 09:22:10;;;;;;;;;;;16.30;62.20;;;;;;5092238;28;19946;-31
2023/05/23 09:24:36;;;;;;;;;;;16.30;61.90;;;;;;5092238;28;19912;-29
2023/05/23 09:27:03;;;;;;;;;;;16.30;61.60;;;;;;5092273;28;19957;-32
2023/05/23 09:29:29;;;;;;;;;;;16.30;61.40;;;;;;5092373;28;19908;-29
2023/05/23 09:31:59;;;;;;;;;;;16.30;62.00;;;;;;5092193;28;20375;-32
2023/05/23 09:34:25;;;;;;;;;;;16.30;62.10;;;;;;5074100;28;19947;-35
2023/05/23 09:36:54;;;;;;;;;;;16.40;62.30;;;;;;5092209;28;19937;-32
2023/05/23 09:39:19;;;;;;;;;;;16.50;61.50;;;;;;5092324;28;19999;-30
2023/05/23 09:41:47;;;;;;;;;;;16.40;60.70;;;;;;5092424;28;19935;-32
2023/05/23 09:44:12;;;;;;;;;;;16.40;60.70;;;;;;5074206;28;19983;-33
2023/05/23 09:46:38;;;;;;;;;;;16.30;61.50;;;;;;5092185;28;20200;-33
2023/05/23 09:49:13;;;;;;;;;;;16.30;61.50;;;;;;5091994;28;19962;-36
2023/05/23 09:51:39;;;;;;;;;;;16.50;62.30;;;;;;5073654;28;19912;-31
2023/05/23 09:54:05;;;;;;;;;;;16.70;61.00;;;;;;5091981;28;19908;-34
2023/05/23 09:56:31;;;;;;;;;;;16.70;61.70;;;;;;5091940;28;19908;-30
2023/05/23 09:58:57;;;;;;;;;;;16.80;60.80;;;;;;5091835;28;19955;-31
2023/05/23 10:01:24;;;;;;;;;;;16.80;61.00;;;;;;5091907;28;19912;-32
2023/05/23 10:03:53;;;;;;;;;;;16.80;61.10;;;;;;5091897;28;20279;-31
2023/05/23 10:06:21;;;;;;;;;;;16.70;60.50;;;;;;5091770;28;19908;-35
2023/05/23 10:08:51;;;;;;;;;;;16.70;61.00;;;;;;5091878;28;19908;-33
2023/05/23 10:11:17;;;;;;;;;;;16.70;59.60;;;;;;5091940;28;20364;-33
2023/05/23 10:13:43;;;;;;;;;;;16.80;59.80;;;;;;5091760;28;19991;-33
2023/05/23 10:16:20;;;;;;;;;;;16.80;59.20;;;;;;5091735;28;19950;-30
2023/05/23 10:18:48;;;;;;;;;;;16.90;58.50;;;;;;5091855;28;20368;-36
2023/05/23 10:21:19;;;;;;;;;;;16.90;58.00;;;;;;5091623;28;19912;-34
2023/05/23 10:23:46;;;;;;;;;;;16.90;57.50;;;;;;5091718;28;19908;-37
2023/05/23 10:26:12;;;;;;;;;;;16.80;57.50;;;;;;5095632;28;20251;-34
2023/05/23 10:28:38;;;;;;;;;;;16.70;57.90;;;;;;5095685;28;19908;-33
2023/05/23 10:31:04;;;;;;;;;;;16.90;58.70;;;;;;5096037;28;19914;-31
2023/05/23 10:33:33;;;;;;;;;;;17.00;58.30;;;;;;5077431;28;19961;-33
2023/05/23 10:36:03;;;;;;;;;;;17.20;57.70;;;;;;5095675;28;19942;-32
2023/05/23 10:38:29;;;;;;;;;;;17.40;58.30;;;;;;5095574;28;20494;-34
2023/05/23 10:41:12;;;;;;;;;;;17.70;56.20;;;;;;5095574;28;19999;-35
2023/05/23 10:44:00;;;;;;;;;;;17.90;57.10;;;;;;5095615;28;19922;-30
2023/05/23 10:46:45;;;;;;;;;;;18.10;55.00;;;;;;5095277;28;19919;-31
2023/05/23 10:49:11;;;;;;;;;;;18.00;56.20;;;;;;5095086;28;19909;-34
2023/05/23 10:51:39;;;;;;;;;;;18.10;55.40;;;;;;5095480;28;19930;-33
2023/05/23 10:54:09;;;;;;;;;;;18.10;55.60;;;;;;5095154;28;19943;-35
2023/05/23 10:56:35;;;;;;;;;;;18.10;55.50;;;;;;5095536;28;20127;-31
2023/05/23 10:59:04;;;;;;;;;;;18.10;56.10;;;;;;5095014;28;19922;-32
2023/05/23 11:01:29;;;;;;;;;;;18.20;56.10;;;;;;5095120;28;19915;-32
2023/05/23 11:03:55;;;;;;;;;;;18.30;55.00;;;;;;5095687;28;19908;-36
2023/05/23 11:06:31;;;;;;;;;;;18.50;54.50;;;;;;5095034;28;19972;-34
2023/05/23 11:09:11;;;;;;;;;;;18.40;54.50;;;;;;5094839;28;19912;-30
2023/05/23 11:11:56;;;;;;;;;;;18.40;54.30;;;;;;5095202;28;19908;-35
2023/05/23 11:14:33;;;;;;;;;;;18.40;54.90;;;;;;5076900;28;19944;-37
2023/05/23 11:16:59;;;;;;;;;;;18.50;53.70;;;;;;5076845;28;19915;-32
2023/05/23 11:19:28;;;;;;;;;;;18.40;53.80;;;;;;5094647;28;19908;-29
2023/05/23 11:21:58;;;;;;;;;;;18.50;52.40;;;;;;5094625;28;19970;-34
2023/05/23 11:24:43;;;;;;;;;;;18.50;52.70;;;;;;5094563;28;19912;-33
2023/05/23 11:27:10;;;;;;;;;;;18.60;53.10;;;;;;5094566;28;19951;-32
2023/05/23 11:29:36;;;;;;;;;;;18.70;52.20;;;;;;5094806;28;19915;-31
2023/05/23 11:32:08;;;;;;;;;;;18.60;52.20;;;;;;5076381;28;20344;-30
2023/05/23 11:34:34;;;;;;;;;;;18.60;52.00;;;;;;5094578;28;20442;-33
2023/05/23 11:36:59;;;;;;;;;;;18.50;52.40;;;;;;5093160;28;19946;-33
2023/05/23 11:39:25;;;;;;;;;;;18.30;53.00;;;;;;5094477;28;19995;-33
2023/05/23 11:42:02;;;;;;;;;;;18.30;52.30;;;;;;5094473;28;19908;-35
2023/05/23 11:44:28;;;;;;;;;;;18.30;52.50;;;;;;5094272;28;20289;-35
2023/05/23 11:47:01;;;;;;;;;;;18.20;53.00;;;;;;5094530;28;19915;-32
2023/05/23 11:49:38;;;;;;;;;;;18.30;53.70;;;;;;5094160;28;19916;-33
2023/05/23 11:52:05;;;;;;;;;;;18.50;53.00;;;;;;5094340;28;20069;-33
2023/05/23 11:54:31;;;;;;;;;;;18.70;53.20;;;;;;5094383;28;19912;-41
2023/05/23 11:56:56;;;;;;;;;;;18.90;52.50;;;;;;5094071;28;19957;-38
2023/05/23 11:59:23;;;;;;;;;;;18.90;52.20;;;;;;5093917;28;19919;-33
2023/05/23 12:01:48;;;;;;;;;;;18.70;52.00;;;;;;5094068;28;19912;-34
2023/05/23 12:04:13;;;;;;;;;;;18.50;52.30;;;;;;5094140;28;20413;-38
2023/05/23 12:06:42;;;;;;;;;;;18.50;51.00;;;;;;5094078;28;19908;-34
2023/05/23 12:09:11;;;;;;;;;;;18.50;51.90;;;;;;5075452;28;20011;-38
2023/05/23 12:11:38;;;;;;;;;;;18.60;51.50;;;;;;5094182;28;19915;-36
2023/05/23 12:14:05;;;;;;;;;;;18.80;51.20;;;;;;5094085;28;19934;-32
2023/05/23 12:16:34;;;;;;;;;;;18.90;50.70;;;;;;5075645;28;19944;-33
2023/05/23 12:19:01;;;;;;;;;;;18.80;50.10;;;;;;5093788;28;20411;-32
2023/05/23 12:21:39;;;;;;;;;;;18.80;50.40;;;;;;5093712;28;19916;-36
2023/05/23 12:24:18;;;;;;;;;;;18.90;51.30;;;;;;5093481;28;19908;-36
2023/05/23 12:26:47;;;;;;;;;;;19.00;50.50;;;;;;5093439;28;20383;-34
2023/05/23 12:29:12;;;;;;;;;;;18.90;49.30;;;;;;5093497;28;20125;-32
2023/05/23 12:31:38;;;;;;;;;;;18.90;49.20;;;;;;5093339;28;20054;-33
2023/05/23 12:34:03;;;;;;;;;;;18.90;48.90;;;;;;5093413;28;20363;-36
2023/05/23 12:36:33;;;;;;;;;;;19.00;49.60;;;;;;5093241;28;20450;-33
2023/05/23 12:39:02;;;;;;;;;;;19.10;49.00;;;;;;5093364;28;19908;-34
2023/05/23 12:41:27;;;;;;;;;;;19.00;49.10;;;;;;5093275;28;19912;-36
2023/05/23 12:43:54;;;;;;;;;;;19.00;49.80;;;;;;5092900;28;19969;-33
2023/05/23 12:46:20;;;;;;;;;;;19.10;49.10;;;;;;5093116;28;20265;-35
2023/05/23 12:48:46;;;;;;;;;;;19.20;49.80;;;;;;5092725;28;20002;-33
2023/05/23 12:51:12;;;;;;;;;;;19.20;48.50;;;;;;5093065;28;19919;-33
2023/05/23 12:53:37;;;;;;;;;;;19.00;48.80;;;;;;5093066;28;19908;-32
2023/05/23 12:56:03;;;;;;;;;;;18.90;49.30;;;;;;5093046;28;19912;-34
2023/05/23 12:58:29;;;;;;;;;;;18.80;50.10;;;;;;5092920;28;20384;-33
2023/05/23 13:00:55;;;;;;;;;;;18.80;50.10;;;;;;5092984;28;19999;-31
2023/05/23 13:03:20;;;;;;;;;;;18.80;50.40;;;;;;5092975;28;19955;-35
2023/05/23 13:05:46;;;;;;;;;;;18.90;50.60;;;;;;5092782;28;19912;-36
2023/05/23 13:08:11;;;;;;;;;;;18.90;49.70;;;;;;5092742;28;20002;-33
2023/05/23 13:10:37;;;;;;;;;;;19.10;51.10;;;;;;5092634;28;19908;-33
2023/05/23 13:13:03;;;;;;;;;;;19.30;49.70;;;;;;5092558;28;19915;-33
2023/05/23 13:15:28;;;;;;;;;;;19.40;49.50;;;;;;5092719;28;19908;-36
2023/05/23 13:17:54;;;;;;;;;;;19.50;48.60;;;;;;5092522;28;19957;-33
2023/05/23 13:20:20;;;;;;;;;;;19.40;48.90;;;;;;5074195;28;19909;-37
2023/05/23 13:22:45;;;;;;;;;;;19.30;48.60;;;;;;5092464;28;20428;-30
2023/05/23 13:25:11;;;;;;;;;;;19.30;47.50;;;;;;5074102;28;19912;-36
2023/05/23 13:27:38;;;;;;;;;;;19.40;47.50;;;;;;5073993;28;20616;-32
2023/05/23 13:30:04;;;;;;;;;;;19.30;48.60;;;;;;5074097;28;20276;-35
2023/05/23 13:32:29;;;;;;;;;;;19.20;48.00;;;;;;5092407;28;19943;-31
2023/05/23 13:34:55;;;;;;;;;;;19.10;48.30;;;;;;5092260;28;19954;-33
2023/05/23 13:37:20;;;;;;;;;;;18.80;48.60;;;;;;5092100;28;19977;-36
2023/05/23 13:39:46;;;;;;;;;;;18.70;48.50;;;;;;5074161;28;19908;-30
2023/05/23 13:42:11;;;;;;;;;;;18.80;49.10;;;;;;5091928;28;19908;-33
2023/05/23 13:44:36;;;;;;;;;;;18.90;49.00;;;;;;5092093;28;19967;-34
2023/05/23 13:47:09;;;;;;;;;;;19.00;48.50;;;;;;5092012;28;19931;-36
2023/05/23 13:49:35;;;;;;;;;;;19.00;48.70;;;;;;5092049;28;19912;-29
2023/05/23 13:52:00;;;;;;;;;;;18.90;49.30;;;;;;5092104;28;20014;-31
2023/05/23 13:54:26;;;;;;;;;;;18.80;49.60;;;;;;5092090;28;19934;-36
2023/05/23 13:56:51;;;;;;;;;;;18.70;50.30;;;;;;5092070;28;20060;-34
2023/05/23 13:59:20;;;;;;;;;;;18.60;50.50;;;;;;5091580;28;19908;-34
2023/05/23 14:01:48;;;;;;;;;;;18.70;50.90;;;;;;5092106;28;19908;-31
2023/05/23 14:04:13;;;;;;;;;;;18.70;50.60;;;;;;5091751;28;20007;-36
2023/05/23 14:06:39;;;;;;;;;;;18.70;50.10;;;;;;5091918;28;20022;-34
2023/05/23 14:09:05;;;;;;;;;;;18.50;50.50;;;;;;5091789;28;19995;-34
2023/05/23 14:11:30;;;;;;;;;;;18.40;50.00;;;;;;5091727;28;19912;-35
2023/05/23 14:13:56;;;;;;;;;;;18.30;50.20;;;;;;5092087;28;20017;-39